createdAt,value
2018-06-09T00:01:56.234Z,3.00
2018-06-09T00:04:24.615Z,2.67
2018-06-09T00:06:53.094Z,2.40
2018-06-09T00:09:21.555Z,2.45
2018-06-09T00:11:50.161Z,2.83
2018-06-09T00:14:18.551Z,2.63
2018-06-09T00:16:47.009Z,2.72
2018-06-09T00:19:15.376Z,2.80
2018-06-09T00:21:43.866Z,2.67
2018-06-09T00:24:12.230Z,2.80
2018-06-09T00:26:40.634Z,2.30
2018-06-09T00:29:08.993Z,3.00
2018-06-09T00:31:37.398Z,2.67
2018-06-09T00:34:05.853Z,3.17
2018-06-09T00:36:34.381Z,2.90
2018-06-09T00:39:02.848Z,2.80
2018-06-09T00:41:31.298Z,3.10
2018-06-09T00:43:59.749Z,2.90
2018-06-09T00:46:28.187Z,2.83
2018-06-09T00:48:56.786Z,3.30
2018-06-09T00:51:25.329Z,3.00
2018-06-09T00:53:53.740Z,3.17
2018-06-09T00:56:33.441Z,2.80
2018-06-09T00:59:01.878Z,3.50
2018-06-09T01:01:30.333Z,3.07
2018-06-09T01:03:59.008Z,3.27
2018-06-09T01:06:27.522Z,3.00
2018-06-09T01:08:56.028Z,3.20
2018-06-09T01:11:24.543Z,3.10
2018-06-09T01:13:53.002Z,3.33
2018-06-09T01:16:21.883Z,3.10
2018-06-09T01:18:51.893Z,3.20
2018-06-09T01:21:20.414Z,3.73
2018-06-09T01:23:53.019Z,3.30
2018-06-09T01:26:21.567Z,3.83
2018-06-09T01:28:50.086Z,3.70
2018-06-09T01:31:18.654Z,3.93
2018-06-09T01:33:47.131Z,3.93
2018-06-09T01:36:15.618Z,4.00
2018-06-09T01:38:44.281Z,4.03
2018-06-09T01:41:12.679Z,3.95
2018-06-09T01:43:41.070Z,3.70
2018-06-09T01:46:09.428Z,4.30
2018-06-09T01:48:37.842Z,3.60
2018-06-09T01:51:06.359Z,4.30
2018-06-09T01:53:34.874Z,3.47
2018-06-09T01:56:03.262Z,4.17
2018-06-09T01:58:31.655Z,3.37
2018-06-09T02:01:00.082Z,4.00
2018-06-09T02:03:28.777Z,3.42
2018-06-09T02:05:57.321Z,3.20
2018-06-09T02:08:25.781Z,3.37
2018-06-09T02:10:57.806Z,3.37
2018-06-09T02:13:26.695Z,2.90
2018-06-09T02:15:55.226Z,3.17
2018-06-09T02:18:23.642Z,2.70
2018-06-09T02:20:52.082Z,3.30
2018-06-09T02:23:20.478Z,3.27
2018-06-09T02:25:48.951Z,3.17
2018-06-09T02:28:18.961Z,3.13
2018-06-09T02:30:47.675Z,3.27
2018-06-09T02:33:16.163Z,2.87
2018-06-09T02:35:44.771Z,3.03
2018-06-09T02:38:13.210Z,3.20
2018-06-09T02:40:41.714Z,3.90
2018-06-09T02:43:10.199Z,4.00
2018-06-09T02:45:38.689Z,3.40
2018-06-09T02:48:07.209Z,3.87
2018-06-09T02:50:35.622Z,4.23
2018-06-09T02:53:04.098Z,3.47
2018-06-09T02:55:32.619Z,3.67
2018-06-09T02:58:01.438Z,3.37
2018-06-09T03:00:29.946Z,3.33
2018-06-09T03:02:58.513Z,3.20
2018-06-09T03:05:27.020Z,3.43
2018-06-09T03:07:55.478Z,3.57
2018-06-09T03:10:24.077Z,3.37
2018-06-09T03:12:52.575Z,3.92
2018-06-09T03:15:21.071Z,3.90
2018-06-09T03:17:49.574Z,4.43
2018-06-09T03:20:18.016Z,4.43
2018-06-09T03:22:46.529Z,4.20
2018-06-09T03:25:14.967Z,4.65
2018-06-09T03:27:43.422Z,3.47
2018-06-09T03:30:11.825Z,4.10
2018-06-09T03:32:40.227Z,3.90
2018-06-09T03:35:08.858Z,5.00
2018-06-09T03:37:37.375Z,4.47
2018-06-09T03:40:05.862Z,5.17
2018-06-09T03:42:34.383Z,3.87
2018-06-09T03:45:02.883Z,4.12
2018-06-09T03:47:31.402Z,4.22
2018-06-09T03:49:59.942Z,4.63
2018-06-09T03:52:28.340Z,5.27
2018-06-09T03:54:56.714Z,5.00
2018-06-09T03:57:25.162Z,5.00
2018-06-09T03:59:53.782Z,6.23
2018-06-09T04:02:22.366Z,6.73
2018-06-09T04:04:50.737Z,6.92
2018-06-09T04:07:19.441Z,7.00
2018-06-09T04:09:47.841Z,6.47
2018-06-09T04:12:16.506Z,7.97
2018-06-09T04:14:45.087Z,6.83
2018-06-09T04:17:13.516Z,8.75
2018-06-09T04:19:41.962Z,7.85
2018-06-09T04:22:10.358Z,9.67
2018-06-09T04:24:38.849Z,8.90
2018-06-09T04:27:07.298Z,8.00
2018-06-09T04:29:35.664Z,7.50
2018-06-09T04:32:04.248Z,6.97
2018-06-09T04:34:32.697Z,6.93
2018-06-09T04:37:01.365Z,7.87
2018-06-09T04:39:29.801Z,6.92
2018-06-09T04:41:58.181Z,7.77
2018-06-09T04:44:26.566Z,8.08
2018-06-09T04:46:54.962Z,9.78
2018-06-09T04:49:23.529Z,14.60
2018-06-09T04:51:51.890Z,9.65
2018-06-09T04:54:20.286Z,8.48
2018-06-09T04:56:48.683Z,8.00
2018-06-09T04:59:17.183Z,9.38
2018-06-09T05:01:45.661Z,8.40
2018-06-09T05:04:14.106Z,8.55
2018-06-09T05:06:42.494Z,7.92
2018-06-09T05:09:10.910Z,7.95
2018-06-09T05:11:43.516Z,7.62
2018-06-09T05:14:12.113Z,9.00
2018-06-09T05:16:40.521Z,7.75
2018-06-09T05:19:09.179Z,8.70
2018-06-09T05:21:37.562Z,9.33
2018-06-09T05:24:06.203Z,7.67
2018-06-09T05:26:34.632Z,7.58
2018-06-09T05:29:03.030Z,7.70
2018-06-09T05:31:31.557Z,7.67
2018-06-09T05:34:00.084Z,7.55
2018-06-09T05:36:28.502Z,7.45
2018-06-09T05:38:56.957Z,6.87
2018-06-09T05:41:25.358Z,6.35
2018-06-09T05:43:53.817Z,5.40
2018-06-09T05:46:22.305Z,5.00
2018-06-09T05:48:50.781Z,4.75
2018-06-09T05:51:19.133Z,4.53
2018-06-09T05:53:48.248Z,4.80
2018-06-09T05:56:16.702Z,4.55
2018-06-09T05:58:48.841Z,4.92
2018-06-09T06:01:17.320Z,5.17
2018-06-09T06:03:46.018Z,5.40
2018-06-09T06:06:14.825Z,5.17
2018-06-09T06:08:43.257Z,5.70
2018-06-09T06:11:11.976Z,5.60
2018-06-09T06:13:40.569Z,7.00
2018-06-09T06:16:10.305Z,8.10
2018-06-09T06:18:39.673Z,7.30
2018-06-09T06:21:08.181Z,7.95
2018-06-09T06:23:36.594Z,7.53
2018-06-09T06:26:05.068Z,7.12
2018-06-09T06:28:33.551Z,6.87
2018-06-09T06:31:02.097Z,7.15
2018-06-09T06:33:30.561Z,8.03
2018-06-09T06:36:03.074Z,7.42
2018-06-09T06:38:31.699Z,7.37
2018-06-09T06:41:00.455Z,8.10
2018-06-09T06:43:33.898Z,4.92
2018-06-09T06:46:10.405Z,5.50
2018-06-09T06:48:41.919Z,5.30
2018-06-09T06:51:19.579Z,6.00
2018-06-09T06:53:48.374Z,6.03
2018-06-09T06:56:16.997Z,6.60
2018-06-09T06:58:45.549Z,5.67
2018-06-09T07:01:14.010Z,6.30
2018-06-09T07:03:43.187Z,5.12
2018-06-09T07:06:12.009Z,4.92
2018-06-09T07:08:40.627Z,3.87
2018-06-09T07:11:09.435Z,3.98
2018-06-09T07:13:38.446Z,3.70
2018-06-09T07:16:07.210Z,3.52
2018-06-09T07:18:35.562Z,3.50
2018-06-09T07:21:04.011Z,3.83
2018-06-09T07:23:32.498Z,3.50
2018-06-09T07:26:01.392Z,3.45
2018-06-09T07:28:30.640Z,3.30
2018-06-09T07:31:00.314Z,3.17
2018-06-09T07:33:29.179Z,2.70
2018-06-09T07:35:58.035Z,2.22
2018-06-09T07:38:27.302Z,2.40
2018-06-09T07:40:56.790Z,2.70
2018-06-09T07:43:25.507Z,2.50
2018-06-09T07:45:54.178Z,2.58
2018-06-09T07:48:22.681Z,3.15
2018-06-09T07:50:51.170Z,3.10
2018-06-09T07:53:19.694Z,3.42
2018-06-09T07:55:48.146Z,2.90
2018-06-09T07:58:17.262Z,3.40
2018-06-09T08:00:46.108Z,3.00
2018-06-09T08:03:14.611Z,3.55
2018-06-09T08:11:53.293Z,3.47
2018-06-09T08:17:48.307Z,3.70
2018-06-09T08:20:24.762Z,3.75
2018-06-09T08:23:00.042Z,4.03
2018-06-09T08:25:33.490Z,3.60
2018-06-09T08:28:16.246Z,3.40
2018-06-09T08:30:45.223Z,4.05
2018-06-09T08:33:13.703Z,4.75
2018-06-09T08:35:45.796Z,3.60
2018-06-09T08:38:17.524Z,3.95
2018-06-09T08:40:46.155Z,4.17
2018-06-09T08:43:14.586Z,4.75
2018-06-09T08:45:43.115Z,4.95
2018-06-09T08:48:11.552Z,5.00
2018-06-09T08:50:40.288Z,5.62
2018-06-09T08:53:08.779Z,5.30
2018-06-09T08:55:37.255Z,5.67
2018-06-09T08:58:05.836Z,4.90
2018-06-09T09:00:34.250Z,4.25
2018-06-09T09:03:02.851Z,5.10
2018-06-09T09:05:31.287Z,4.90
2018-06-09T09:07:59.725Z,4.92
2018-06-09T09:10:28.177Z,4.95
2018-06-09T09:12:56.825Z,4.78
2018-06-09T09:15:25.249Z,4.42
2018-06-09T09:17:53.718Z,4.80
2018-06-09T09:20:22.241Z,4.72
2018-06-09T09:22:50.946Z,4.22
2018-06-09T09:25:19.382Z,4.90
2018-06-09T09:27:47.942Z,4.30
2018-06-09T09:30:16.407Z,4.20
2018-06-09T09:32:44.814Z,3.83
2018-06-09T09:35:13.327Z,4.30
2018-06-09T09:37:41.773Z,3.95
2018-06-09T09:40:10.402Z,4.50
2018-06-09T09:42:38.826Z,4.12
2018-06-09T09:45:07.287Z,5.15
2018-06-09T09:47:35.736Z,4.00
2018-06-09T09:50:04.291Z,4.28
2018-06-09T09:52:32.775Z,4.28
2018-06-09T09:55:01.478Z,3.83
2018-06-09T09:57:29.898Z,3.98
2018-06-09T09:59:58.351Z,3.60
2018-06-09T10:02:30.751Z,4.20
2018-06-09T10:04:59.263Z,3.85
2018-06-09T10:07:27.879Z,4.15
2018-06-09T10:09:56.357Z,3.90
2018-06-09T10:12:24.972Z,4.72
2018-06-09T10:14:53.413Z,4.30
2018-06-09T10:17:21.914Z,3.90
2018-06-09T10:19:50.370Z,5.03
2018-06-09T10:22:18.877Z,4.45
2018-06-09T10:24:47.499Z,3.55
2018-06-09T10:27:15.981Z,3.87
2018-06-09T10:29:44.582Z,4.12
2018-06-09T10:32:15.860Z,3.67
2018-06-09T10:34:47.690Z,4.08
2018-06-09T10:37:22.486Z,4.05
2018-06-09T10:43:23.454Z,4.40
2018-06-09T10:45:51.885Z,4.15
2018-06-09T10:48:20.411Z,3.98
2018-06-09T10:50:48.942Z,4.05
2018-06-09T10:53:17.379Z,4.25
2018-06-09T10:55:46.091Z,5.03
2018-06-09T10:58:14.578Z,4.03
2018-06-09T11:00:43.140Z,4.50
2018-06-09T11:03:11.735Z,5.10
2018-06-09T11:05:40.246Z,3.80
2018-06-09T11:08:08.745Z,4.75
2018-06-09T11:10:37.255Z,4.53
2018-06-09T11:13:05.922Z,4.05
2018-06-09T11:15:34.407Z,4.15
2018-06-09T11:18:02.852Z,4.40
2018-06-09T11:20:31.584Z,4.60
2018-06-09T11:23:00.426Z,4.33
2018-06-09T11:25:28.959Z,4.53
2018-06-09T11:27:57.415Z,4.10
2018-06-09T11:30:25.971Z,5.05
2018-06-09T11:32:54.474Z,4.30
2018-06-09T11:35:23.015Z,4.12
2018-06-09T11:37:51.418Z,4.35
2018-06-09T11:40:20.231Z,4.37
2018-06-09T11:42:48.690Z,4.00
2018-06-09T11:45:17.212Z,4.55
2018-06-09T11:47:45.691Z,4.60
2018-06-09T11:50:14.154Z,4.67
2018-06-09T11:52:42.606Z,4.17
2018-06-09T11:55:11.050Z,4.22
2018-06-09T11:57:39.461Z,4.45
2018-06-09T12:00:08.146Z,4.55
2018-06-09T12:02:36.903Z,4.85
2018-06-09T12:05:05.366Z,4.75
2018-06-09T12:07:33.821Z,5.10
2018-06-09T12:10:02.358Z,4.95
2018-06-09T12:12:30.802Z,5.65
2018-06-09T12:14:59.251Z,5.40
2018-06-09T12:17:27.737Z,4.90
2018-06-09T12:19:56.193Z,5.55
2018-06-09T12:22:24.752Z,5.28
2018-06-09T12:24:53.222Z,5.10
2018-06-09T12:27:21.735Z,5.60
2018-06-09T12:29:50.114Z,5.17
2018-06-09T12:32:18.538Z,5.28
2018-06-09T12:34:47.042Z,4.60
2018-06-09T12:37:15.512Z,4.78
2018-06-09T12:39:44.009Z,4.37
2018-06-09T12:42:15.298Z,4.95
2018-06-09T12:44:43.694Z,5.05
2018-06-09T12:47:12.120Z,4.78
2018-06-09T12:49:40.626Z,5.05
2018-06-09T12:52:09.114Z,5.08
2018-06-09T12:54:37.527Z,5.40
2018-06-09T12:57:06.090Z,4.80
2018-06-09T12:59:34.777Z,4.55
2018-06-09T13:02:03.222Z,4.70
2018-06-09T13:04:31.660Z,5.45
2018-06-09T13:07:00.287Z,4.90
2018-06-09T13:09:28.734Z,5.22
2018-06-09T13:11:57.204Z,4.83
2018-06-09T13:14:25.901Z,5.95
2018-06-09T13:16:54.378Z,4.67
2018-06-09T13:19:23.258Z,4.75
2018-06-09T13:21:51.769Z,5.20
2018-06-09T13:24:20.208Z,4.67
2018-06-09T13:26:48.794Z,5.37
2018-06-09T13:29:17.322Z,4.87
2018-06-09T13:31:46.049Z,4.17
2018-06-09T13:34:14.489Z,4.72
2018-06-09T13:36:42.921Z,4.15
2018-06-09T13:39:11.422Z,4.30
2018-06-09T13:41:40.166Z,4.37
2018-06-09T13:44:08.571Z,4.50
2018-06-09T13:46:37.037Z,4.30
2018-06-09T13:49:05.652Z,3.92
2018-06-09T13:51:34.121Z,4.67
2018-06-09T13:54:02.638Z,4.45
2018-06-09T13:56:31.091Z,4.55
2018-06-09T13:58:59.638Z,4.90
2018-06-09T14:01:28.051Z,4.90
2018-06-09T14:03:56.541Z,4.20
2018-06-09T14:06:25.047Z,4.70
2018-06-09T14:08:53.480Z,4.37
2018-06-09T14:11:21.926Z,4.53
2018-06-09T14:13:50.768Z,4.50
2018-06-09T14:16:19.233Z,4.83
2018-06-09T14:18:47.812Z,3.80
2018-06-09T14:21:16.254Z,4.10
2018-06-09T14:23:44.814Z,4.35
2018-06-09T14:26:13.298Z,4.62
2018-06-09T14:28:41.781Z,4.37
2018-06-09T14:31:10.318Z,4.55
2018-06-09T14:33:38.818Z,4.60
2018-06-09T14:36:07.254Z,4.30
2018-06-09T14:38:35.762Z,5.33
2018-06-09T14:41:04.282Z,5.47
2018-06-09T14:43:32.774Z,5.15
2018-06-09T14:46:01.269Z,4.40
2018-06-09T14:48:29.766Z,5.37
2018-06-09T14:50:58.366Z,4.87
2018-06-09T14:53:26.819Z,5.70
2018-06-09T14:55:55.382Z,5.20
2018-06-09T14:58:23.944Z,5.37
2018-06-09T15:00:52.383Z,6.42
2018-06-09T15:03:21.054Z,6.20
2018-06-09T15:05:49.575Z,6.15
2018-06-09T15:08:17.967Z,5.80
2018-06-09T15:10:46.565Z,6.45
2018-06-09T15:13:15.249Z,7.22
2018-06-09T15:15:43.777Z,5.70
2018-06-09T15:18:12.161Z,6.50
2018-06-09T15:20:40.630Z,6.85
2018-06-09T15:23:09.208Z,7.72
2018-06-09T15:25:37.800Z,8.33
2018-06-09T15:28:06.311Z,7.00
2018-06-09T15:30:34.842Z,6.97
2018-06-09T15:33:04.322Z,6.75
2018-06-09T15:35:32.878Z,8.55
2018-06-09T15:38:01.412Z,7.53
2018-06-09T15:40:29.899Z,8.08
2018-06-09T15:42:58.452Z,8.03
2018-06-09T15:45:27.390Z,7.40
2018-06-09T15:47:55.913Z,6.67
2018-06-09T15:50:24.474Z,7.03
2018-06-09T15:52:52.921Z,6.35
2018-06-09T15:55:21.407Z,7.40
2018-06-09T15:57:49.926Z,6.55
2018-06-09T16:00:19.422Z,6.62
2018-06-09T16:02:48.015Z,6.80
2018-06-09T16:05:16.539Z,8.00
2018-06-09T16:07:45.070Z,7.85
2018-06-09T16:10:13.517Z,6.62
2018-06-09T16:12:41.951Z,7.60
2018-06-09T16:15:10.989Z,7.80
2018-06-09T16:17:39.429Z,8.43
2018-06-09T16:20:08.003Z,9.58
2018-06-09T16:22:36.381Z,9.70
2018-06-09T16:25:05.169Z,8.48
2018-06-09T16:27:34.401Z,8.40
2018-06-09T16:30:02.889Z,8.63
2018-06-09T16:32:31.441Z,9.18
2018-06-09T16:34:59.982Z,6.90
2018-06-09T16:37:28.608Z,8.38
2018-06-09T16:39:56.998Z,7.08
2018-06-09T16:42:25.424Z,7.28
2018-06-09T16:44:53.842Z,6.80
2018-06-09T16:47:22.493Z,7.30
2018-06-09T16:49:51.021Z,6.92
2018-06-09T16:52:19.450Z,7.12
2018-06-09T16:54:47.925Z,6.30
2018-06-09T16:57:16.571Z,6.90
2018-06-09T16:59:45.027Z,6.85
2018-06-09T17:02:13.471Z,6.78
2018-06-09T17:04:41.898Z,6.37
2018-06-09T17:07:10.305Z,5.95
2018-06-09T17:09:38.838Z,6.40
2018-06-09T17:12:07.286Z,5.58
2018-06-09T17:14:35.735Z,6.90
2018-06-09T17:17:04.125Z,9.28
2018-06-09T17:19:34.223Z,8.15
2018-06-09T17:22:02.839Z,12.13
2018-06-09T17:24:31.358Z,13.70
2018-06-09T17:26:59.840Z,14.65
2018-06-09T17:29:28.270Z,12.50
2018-06-09T17:31:56.645Z,9.85
2018-06-09T17:34:25.054Z,8.78
2018-06-09T17:36:53.515Z,15.35
2018-06-09T17:39:21.966Z,17.30
2018-06-09T17:41:50.335Z,23.38
2018-06-09T17:44:18.924Z,14.18
2018-06-09T17:46:47.398Z,12.65
2018-06-09T17:49:15.819Z,12.35
2018-06-09T17:51:44.252Z,14.20
2018-06-09T17:54:12.677Z,11.45
2018-06-09T17:56:44.741Z,11.80
2018-06-09T17:59:13.246Z,12.33
2018-06-09T18:01:41.697Z,13.20
